METAR Data
IDs: Format: Raw Decoded Include TAF

Data at: 0618 UTC 19 Aug 2019

KLLQ 190553Z AUTO 00000KT 10SM CLR 26/22 A2997 RMK AO2 SLP146 T02560222 10328 20250 403440250 50005
KLLQ 190453Z AUTO 00000KT 10SM CLR 26/22 A2998 RMK AO2 SLP148 T02560222
KLLQ 190353Z AUTO 13003KT 10SM CLR 26/22 A2997 RMK AO2 SLP146 T02560222
KLLQ 190253Z AUTO 10004KT 10SM CLR 26/22 A2996 RMK AO2 SLP141 T02610222 53019
KLLQ 190153Z AUTO 06005KT 10SM CLR 26/22 A2995 RMK AO2 SLP138 T02610222
KLLQ 190053Z AUTO 14011G17KT 10SM CLR 27/22 A2990 RMK AO2 SLP122 T02720222
KLLQ 182353Z AUTO 13005KT 10SM SCT075 33/23 A2990 RMK AO2 LTG DSNT NE SLP120 60000 T03280233 10344 20300 55005
KLLQ 182253Z AUTO 16003KT 10SM FEW043 SCT085 34/23 A2990 RMK AO2 LTG DSNT N SLP120 T03390233
KLLQ 182153Z AUTO 26006KT 10SM CLR 34/23 A2991 RMK AO2 LTG DSNT E SLP125 T03390233
KLLQ 182053Z AUTO 27006KT 10SM CLR 33/24 A2991 RMK AO2 LTG DSNT E RAB12E22 SLP125 P0000 60000 T03330239 57014
KLLQ 181953Z AUTO 29008KT 10SM FEW046 FEW080 SCT095 33/23 A2993 RMK AO2 LTG DSNT SW SLP131 T03280228
KLLQ 181853Z AUTO 28006KT 10SM FEW042 34/22 A2994 RMK AO2 LTG DSNT N AND NW SLP133 T03390217
KLLQ 181753Z AUTO 27008KT 10SM SCT037 SCT050 BKN065 32/22 A2995 RMK AO2 SLP139 T03170217 10339 20256 58004
KLLQ 181653Z AUTO 27006KT 10SM FEW041 FEW050 32/23 A2997 RMK AO2 SLP144 T03220228
KLLQ 181553Z AUTO 21007KT 180V260 10SM SCT027 32/24 A2997 RMK AO2 SLP144 T03170239
KLLQ 181453Z AUTO 22009KT 10SM FEW017 FEW023 31/24 A2997 RMK AO2 SLP143 T03060244 53008
KLLQ 181353Z AUTO VRB05KT 10SM CLR 29/24 A2996 RMK AO2 SLP142 T02890244
KLLQ 181253Z AUTO 20009KT 10SM CLR 27/24 A2995 RMK AO2 SLP136 T02720239
KLLQ 181153Z AUTO 00000KT 10SM CLR 26/23 A2994 RMK AO2 SLP135 T02610233 10278 20256 53009
KLLQ 181053Z AUTO 21005KT 10SM CLR 26/23 A2993 RMK AO2 SLP129 T02610233
KLLQ 180953Z AUTO 22006KT 10SM CLR 27/23 A2992 RMK AO2 SLP127 T02670233
KLLQ 180853Z AUTO 21007KT 10SM CLR 27/23 A2991 RMK AO2 SLP125 T02720233 56004
KLLQ 180753Z AUTO 20005KT 10SM CLR 26/22 A2992 RMK AO2 SLP127 T02610222
KLLQ 180653Z AUTO 20003KT 10SM CLR 27/22 A2991 RMK AO2 SLP125 T02670222
KLLQ 180553Z AUTO 20004KT 10SM CLR 27/22 A2993 RMK AO2 SLP130 T02720217 10333 20256 403670217 50008
KLLQ 180453Z AUTO 00000KT 10SM CLR 27/22 A2994 RMK AO2 SLP134 T02670222
KLLQ 180353Z AUTO 00000KT 10SM CLR 28/22 A2993 RMK AO2 SLP129 T02780222
KLLQ 180253Z AUTO 15003KT 10SM CLR 28/22 A2990 RMK AO2 SLP122 T02830222 53007
KLLQ 180153Z AUTO 00000KT 10SM CLR 28/22 A2990 RMK AO2 SLP121 T02830222
KLLQ 180053Z AUTO 00000KT 10SM CLR 31/22 A2989 RMK AO2 SLP116 T03110217
KLLQ 172353Z AUTO 13006KT 10SM CLR 33/21 A2988 RMK AO2 SLP116 T03330211 10367 20333 56005
KLLQ 172253Z AUTO 14007KT 10SM CLR 35/19 A2989 RMK AO2 SLP118 T03500194
KLLQ 172153Z AUTO 15007KT 10SM CLR 36/20 A2989 RMK AO2 SLP117 T03560200
KLLQ 172053Z AUTO 13006KT 10SM CLR 36/19 A2990 RMK AO2 SLP121 T03610194 56018
KLLQ 171953Z AUTO 19007KT 10SM FEW050 35/21 A2991 RMK AO2 SLP125 T03500206
KLLQ 171853Z AUTO 11004KT 10SM FEW049 34/20 A2993 RMK AO2 SLP132 T03440200